createdAt,value
2018-11-14T00:01:09.672Z,15.07
2018-11-14T00:03:14.175Z,15.70
2018-11-14T00:05:18.495Z,11.73
2018-11-14T00:07:22.701Z,12.50
2018-11-14T00:09:27.034Z,11.97
2018-11-14T00:11:31.441Z,11.30
2018-11-14T00:13:35.751Z,13.30
2018-11-14T00:15:40.270Z,12.17
2018-11-14T00:17:45.542Z,13.63
2018-11-14T00:19:49.834Z,5.93
2018-11-14T00:21:54.246Z,6.57
2018-11-14T00:23:58.622Z,13.53
2018-11-14T00:26:14.456Z,19.30
2018-11-14T00:28:18.699Z,10.23
2018-11-14T00:30:25.060Z,17.60
2018-11-14T00:32:29.126Z,9.87
2018-11-14T00:34:33.759Z,9.90
2018-11-14T00:36:38.087Z,9.40
2018-11-14T00:38:42.478Z,8.67
2018-11-14T00:40:46.892Z,9.63
2018-11-14T00:42:51.294Z,13.53
2018-11-14T00:44:55.747Z,9.80
2018-11-14T00:47:00.018Z,9.90
2018-11-14T00:49:04.367Z,7.67
2018-11-14T00:51:08.663Z,13.53
2018-11-14T00:53:13.003Z,9.87
2018-11-14T00:55:19.257Z,10.77
2018-11-14T00:57:23.512Z,10.07
2018-11-14T00:59:27.887Z,15.50
2018-11-14T01:01:32.408Z,9.27
2018-11-14T01:03:37.044Z,9.80
2018-11-14T01:05:41.260Z,13.10
2018-11-14T01:07:45.465Z,12.90
2018-11-14T01:09:49.816Z,11.53
2018-11-14T01:11:54.172Z,16.90
2018-11-14T01:13:58.498Z,9.30
2018-11-14T01:16:02.990Z,13.07
2018-11-14T01:18:07.326Z,7.67
2018-11-14T01:20:13.776Z,8.93
2018-11-14T01:22:18.200Z,8.57
2018-11-14T01:24:22.491Z,8.83
2018-11-14T01:26:26.839Z,10.47
2018-11-14T01:28:31.606Z,9.07
2018-11-14T01:30:36.034Z,8.60
2018-11-14T01:32:40.296Z,10.57
2018-11-14T01:34:44.594Z,9.33
2018-11-14T01:36:49.040Z,9.23
2018-11-14T01:38:53.304Z,14.37
2018-11-14T01:40:57.448Z,9.20
2018-11-14T01:43:01.879Z,14.10
2018-11-14T01:45:09.243Z,9.03
2018-11-14T01:47:13.642Z,14.53
2018-11-14T01:49:18.105Z,10.30
2018-11-14T01:51:22.498Z,8.50
2018-11-14T01:53:26.706Z,16.37
2018-11-14T01:55:30.913Z,13.43
2018-11-14T01:57:35.446Z,11.57
2018-11-14T01:59:39.861Z,10.47
2018-11-14T02:01:53.878Z,16.00
2018-11-14T02:03:58.138Z,9.67
2018-11-14T02:06:02.493Z,12.30
2018-11-14T02:08:06.979Z,11.60
2018-11-14T02:10:13.768Z,12.27
2018-11-14T02:12:18.065Z,15.13
2018-11-14T02:14:22.495Z,10.13
2018-11-14T02:16:26.909Z,11.70
2018-11-14T02:18:31.535Z,12.27
2018-11-14T02:20:35.854Z,10.33
2018-11-14T02:22:40.599Z,12.40
2018-11-14T02:24:44.897Z,16.10
2018-11-14T02:26:49.111Z,9.10
2018-11-14T02:28:53.687Z,11.47
2018-11-14T02:30:57.936Z,10.03
2018-11-14T02:33:02.253Z,8.20
2018-11-14T02:35:07.541Z,6.10
2018-11-14T02:37:11.827Z,13.23
2018-11-14T02:39:16.123Z,9.80
2018-11-14T02:41:20.632Z,11.10
2018-11-14T02:43:24.832Z,14.33
2018-11-14T02:45:29.250Z,9.30
2018-11-14T02:47:33.566Z,9.47
2018-11-14T02:49:37.842Z,17.00
2018-11-14T02:51:42.225Z,9.40
2018-11-14T02:53:46.533Z,14.60
2018-11-14T02:56:04.105Z,18.17
2018-11-14T02:58:08.781Z,7.73
2018-11-14T03:00:15.139Z,13.63
2018-11-14T03:02:19.233Z,9.57
2018-11-14T03:04:23.578Z,9.57
2018-11-14T03:06:27.876Z,9.00
2018-11-14T03:08:32.397Z,11.20
2018-11-14T03:10:36.817Z,10.07
2018-11-14T03:12:41.236Z,9.80
2018-11-14T03:14:45.566Z,10.67
2018-11-14T03:16:50.061Z,10.33
2018-11-14T03:18:54.481Z,11.90
2018-11-14T03:20:58.580Z,9.33
2018-11-14T03:23:02.873Z,8.53
2018-11-14T03:25:08.241Z,9.80
2018-11-14T03:27:12.556Z,10.23
2018-11-14T03:29:16.767Z,8.23
2018-11-14T03:31:21.180Z,10.60
2018-11-14T03:33:25.488Z,15.33
2018-11-14T03:35:34.988Z,12.17
2018-11-14T03:37:39.440Z,9.90
2018-11-14T03:39:43.654Z,10.43
2018-11-14T03:41:48.115Z,9.30
2018-11-14T03:43:52.367Z,8.63
2018-11-14T03:45:57.024Z,14.53
2018-11-14T03:48:01.287Z,10.93
2018-11-14T03:50:06.363Z,17.83
2018-11-14T03:52:10.776Z,15.73
2018-11-14T03:54:15.889Z,11.03
2018-11-14T03:56:20.190Z,24.10
2018-11-14T03:58:24.931Z,12.23
2018-11-14T04:00:29.376Z,10.10
2018-11-14T04:02:33.569Z,9.03
2018-11-14T04:04:37.902Z,13.77
2018-11-14T04:06:42.203Z,12.30
2018-11-14T04:08:46.522Z,12.50
2018-11-14T04:10:51.045Z,12.63
2018-11-14T04:12:55.327Z,14.70
2018-11-14T04:14:59.674Z,7.60
2018-11-14T04:17:04.377Z,14.47
2018-11-14T04:19:09.157Z,12.40
2018-11-14T04:21:13.522Z,16.23
2018-11-14T04:23:17.927Z,11.90
2018-11-14T04:25:22.483Z,16.00
2018-11-14T04:27:26.969Z,16.83
2018-11-14T04:29:31.295Z,10.90
2018-11-14T04:31:35.532Z,15.33
2018-11-14T04:33:39.948Z,9.80
2018-11-14T04:35:44.464Z,18.53
2018-11-14T04:37:48.891Z,11.30
2018-11-14T04:39:53.302Z,13.73
2018-11-14T04:41:57.644Z,10.47
2018-11-14T04:44:01.921Z,16.20
2018-11-14T04:46:06.548Z,10.80
2018-11-14T04:48:10.998Z,16.33
2018-11-14T04:50:17.918Z,7.93
2018-11-14T04:52:22.172Z,12.10
2018-11-14T04:54:26.691Z,12.90
2018-11-14T04:56:31.063Z,10.87
2018-11-14T04:58:35.636Z,10.70
2018-11-14T05:00:39.935Z,9.80
2018-11-14T05:02:44.878Z,10.50
2018-11-14T05:04:49.355Z,12.37
2018-11-14T05:06:53.811Z,10.10
2018-11-14T05:08:58.131Z,18.00
2018-11-14T05:11:02.616Z,18.30
2018-11-14T05:13:07.088Z,9.57
2018-11-14T05:15:13.371Z,10.70
2018-11-14T05:17:17.819Z,10.43
2018-11-14T05:19:22.671Z,10.53
2018-11-14T05:21:27.080Z,22.77
2018-11-14T05:23:31.622Z,12.10
2018-11-14T05:25:36.033Z,19.70
2018-11-14T05:27:40.400Z,11.70
2018-11-14T05:29:44.926Z,11.83
2018-11-14T05:31:49.184Z,14.03
2018-11-14T05:33:53.563Z,11.93
2018-11-14T05:35:58.086Z,19.70
2018-11-14T05:38:02.436Z,16.93
2018-11-14T05:40:07.823Z,17.40
2018-11-14T05:42:12.169Z,15.63
2018-11-14T05:44:16.475Z,13.30
2018-11-14T05:46:20.762Z,11.97
2018-11-14T05:48:25.273Z,18.67
2018-11-14T05:50:29.603Z,15.47
2018-11-14T05:52:34.138Z,11.90
2018-11-14T05:54:38.582Z,15.00
2018-11-14T05:56:43.000Z,12.40
2018-11-14T05:58:47.420Z,11.43
2018-11-14T06:00:51.718Z,11.97
2018-11-14T06:02:56.033Z,15.50
2018-11-14T06:05:00.432Z,10.70
2018-11-14T06:07:04.797Z,14.13
2018-11-14T06:09:11.633Z,9.63
2018-11-14T06:11:16.159Z,13.40
2018-11-14T06:13:20.430Z,18.00
2018-11-14T06:15:24.909Z,11.57
2018-11-14T06:17:29.310Z,15.90
2018-11-14T06:19:33.636Z,16.50
2018-11-14T06:21:37.939Z,13.73
2018-11-14T06:23:42.596Z,12.23
2018-11-14T06:25:47.262Z,12.63
2018-11-14T06:27:52.704Z,16.87
2018-11-14T06:29:57.056Z,12.70
2018-11-14T06:32:01.392Z,20.30
2018-11-14T06:34:06.649Z,21.93
2018-11-14T06:36:11.033Z,10.67
2018-11-14T06:38:15.321Z,21.57
2018-11-14T06:40:19.715Z,12.27
2018-11-14T06:42:24.371Z,11.30
2018-11-14T06:44:28.730Z,15.10
2018-11-14T06:46:33.100Z,12.63
2018-11-14T06:48:37.405Z,15.47
2018-11-14T06:50:41.844Z,15.77
2018-11-14T06:52:47.133Z,16.90
2018-11-14T06:54:51.382Z,10.40
2018-11-14T06:56:55.723Z,14.83
2018-11-14T06:58:59.925Z,17.93
2018-11-14T07:01:04.288Z,10.27
2018-11-14T07:03:08.796Z,14.00
2018-11-14T07:05:14.678Z,13.60
2018-11-14T07:07:18.989Z,13.60
2018-11-14T07:09:23.095Z,13.60
2018-11-14T07:11:27.219Z,14.17
2018-11-14T07:13:31.600Z,13.73
2018-11-14T07:15:36.837Z,13.53
2018-11-14T07:17:41.448Z,12.33
2018-11-14T07:19:45.703Z,10.80
2018-11-14T07:21:49.881Z,9.13
2018-11-14T07:23:54.516Z,12.73
2018-11-14T07:25:58.986Z,11.60
2018-11-14T07:28:03.458Z,17.70
2018-11-14T07:30:11.769Z,14.17
2018-11-14T07:32:16.357Z,9.43
2018-11-14T07:34:20.578Z,7.03
2018-11-14T07:36:24.939Z,14.37
2018-11-14T07:38:34.958Z,9.57
2018-11-14T07:40:39.365Z,18.23
2018-11-14T07:42:43.931Z,16.37
2018-11-14T07:44:48.226Z,10.30
2018-11-14T07:46:52.457Z,10.07
2018-11-14T07:48:56.983Z,12.13
2018-11-14T07:51:01.528Z,16.90
2018-11-14T07:53:06.106Z,13.30
2018-11-14T07:55:11.507Z,9.93
2018-11-14T07:57:15.963Z,13.20
2018-11-14T07:59:20.381Z,12.93
2018-11-14T08:01:24.629Z,14.73
2018-11-14T08:03:28.910Z,7.07
2018-11-14T08:05:33.216Z,16.50
2018-11-14T08:07:37.635Z,10.40
2018-11-14T08:09:41.980Z,8.50
2018-11-14T08:11:46.341Z,9.00
2018-11-14T08:13:50.807Z,10.33
2018-11-14T08:15:56.962Z,12.83
2018-11-14T08:18:01.229Z,10.93
2018-11-14T08:20:07.674Z,18.33
2018-11-14T08:22:12.144Z,16.60
2018-11-14T08:24:16.537Z,8.70
2018-11-14T08:26:20.978Z,14.30
2018-11-14T08:28:25.397Z,10.20
2018-11-14T08:30:29.636Z,18.40
2018-11-14T08:32:33.830Z,11.70
2018-11-14T08:34:38.112Z,8.87
2018-11-14T08:36:42.556Z,16.93
2018-11-14T08:38:46.762Z,16.30
2018-11-14T08:40:51.075Z,14.37
2018-11-14T08:42:55.272Z,16.70
2018-11-14T08:44:59.691Z,13.00
2018-11-14T08:47:04.117Z,11.10
2018-11-14T08:49:08.474Z,15.67
2018-11-14T08:51:12.748Z,10.27
2018-11-14T08:53:17.066Z,14.80
2018-11-14T08:55:21.387Z,14.37
2018-11-14T08:57:25.669Z,11.80
2018-11-14T08:59:30.118Z,12.43
2018-11-14T09:01:34.711Z,9.30
2018-11-14T09:03:39.117Z,12.47
2018-11-14T09:05:43.487Z,11.00
2018-11-14T09:07:48.070Z,16.97
2018-11-14T09:09:52.300Z,10.43
2018-11-14T09:11:56.563Z,11.17
2018-11-14T09:14:00.944Z,13.87
2018-11-14T09:16:05.571Z,14.23
2018-11-14T09:18:09.970Z,14.87
2018-11-14T09:20:15.649Z,11.60
2018-11-14T09:22:20.146Z,10.33
2018-11-14T09:24:24.404Z,11.87
2018-11-14T09:26:28.645Z,13.17
2018-11-14T09:28:32.991Z,9.60
2018-11-14T09:30:37.375Z,13.30
2018-11-14T09:32:41.822Z,9.50
2018-11-14T09:34:46.255Z,12.93
2018-11-14T09:36:50.717Z,17.67
2018-11-14T09:38:55.393Z,11.90
2018-11-14T09:40:59.675Z,13.60
2018-11-14T09:43:03.909Z,10.90
2018-11-14T09:45:11.941Z,13.20
2018-11-14T09:47:16.680Z,12.60
2018-11-14T09:49:21.041Z,11.63
2018-11-14T09:51:25.356Z,11.30
2018-11-14T09:53:29.658Z,14.50
2018-11-14T09:55:34.109Z,12.20
2018-11-14T09:57:39.141Z,10.53
2018-11-14T09:59:43.462Z,11.50
2018-11-14T10:01:47.657Z,13.87
2018-11-14T10:03:52.041Z,15.70
2018-11-14T10:05:56.388Z,15.97
2018-11-14T10:08:00.853Z,12.30
2018-11-14T10:10:06.284Z,12.57
2018-11-14T10:12:10.502Z,11.60
2018-11-14T10:14:14.948Z,18.30
2018-11-14T10:16:19.383Z,11.27
2018-11-14T10:18:23.801Z,10.63
2018-11-14T10:20:28.106Z,10.33
2018-11-14T10:22:32.633Z,8.70
2018-11-14T10:24:36.947Z,7.97
2018-11-14T10:26:41.219Z,18.47
2018-11-14T10:28:45.558Z,8.10
2018-11-14T10:30:50.137Z,11.43
2018-11-14T10:32:54.632Z,16.40
2018-11-14T10:34:58.896Z,7.27
2018-11-14T10:37:03.265Z,10.07
2018-11-14T10:39:10.191Z,16.40
2018-11-14T10:41:14.525Z,7.13
2018-11-14T10:43:18.741Z,11.63
2018-11-14T10:45:24.038Z,12.43
2018-11-14T10:47:28.396Z,11.70
2018-11-14T10:49:32.840Z,8.33
2018-11-14T10:51:37.339Z,11.30
2018-11-14T10:53:41.737Z,16.20
2018-11-14T10:55:46.187Z,11.70
2018-11-14T10:57:50.908Z,11.90
2018-11-14T10:59:55.317Z,10.20
2018-11-14T11:02:04.704Z,12.33
2018-11-14T11:04:14.048Z,12.23
2018-11-14T11:06:48.867Z,6.53
2018-11-14T11:08:58.422Z,11.90
2018-11-14T11:11:07.741Z,11.03
2018-11-14T11:13:17.122Z,16.30
2018-11-14T11:15:24.371Z,18.47
2018-11-14T11:17:33.891Z,8.60
2018-11-14T11:19:38.249Z,11.70
2018-11-14T11:21:42.500Z,7.53
2018-11-14T11:23:46.951Z,9.40
2018-11-14T11:25:51.369Z,15.87
2018-11-14T11:27:55.906Z,10.03
2018-11-14T11:30:00.202Z,11.70
2018-11-14T11:32:04.925Z,8.10
2018-11-14T11:34:10.147Z,12.13
2018-11-14T11:36:14.499Z,8.03
2018-11-14T11:38:18.986Z,12.53
2018-11-14T11:40:23.336Z,8.80
2018-11-14T11:42:27.856Z,13.20
2018-11-14T11:44:32.295Z,11.63
2018-11-14T11:46:37.088Z,9.37
2018-11-14T11:48:41.519Z,12.73
2018-11-14T11:50:46.179Z,14.10
2018-11-14T11:52:50.664Z,15.80
2018-11-14T11:54:55.080Z,8.60
2018-11-14T11:56:59.600Z,10.33
2018-11-14T11:59:04.108Z,12.07
2018-11-14T12:01:08.502Z,13.93
2018-11-14T12:03:12.708Z,7.83
2018-11-14T12:05:17.068Z,11.73
2018-11-14T12:07:21.482Z,7.80
2018-11-14T12:09:25.786Z,5.87
2018-11-14T12:11:30.202Z,7.40
2018-11-14T12:13:34.572Z,14.83
2018-11-14T12:15:38.943Z,8.10
2018-11-14T12:17:43.672Z,6.27
2018-11-14T12:19:48.188Z,4.40
2018-11-14T12:21:52.691Z,4.43
2018-11-14T12:23:57.307Z,5.73
2018-11-14T12:26:01.743Z,5.37
2018-11-14T12:28:06.551Z,11.87
2018-11-14T12:30:12.856Z,6.03
2018-11-14T12:32:17.405Z,6.10
2018-11-14T12:34:21.809Z,4.60
2018-11-14T12:36:26.162Z,5.90
2018-11-14T12:38:30.534Z,6.13
2018-11-14T12:40:34.921Z,5.70
2018-11-14T12:42:39.327Z,11.10
2018-11-14T12:44:43.556Z,9.50
2018-11-14T12:46:48.057Z,6.60
2018-11-14T12:48:52.389Z,12.63
2018-11-14T12:50:56.667Z,10.87
2018-11-14T12:53:01.003Z,13.60
2018-11-14T12:55:05.708Z,11.40
2018-11-14T12:57:10.109Z,7.87
2018-11-14T12:59:14.597Z,10.00
2018-11-14T13:01:18.959Z,8.57
2018-11-14T13:03:23.327Z,11.73
2018-11-14T13:05:27.706Z,13.07
2018-11-14T13:07:32.053Z,11.37
2018-11-14T13:09:36.336Z,15.83
2018-11-14T13:11:40.751Z,21.10
2018-11-14T13:13:47.063Z,15.83
2018-11-14T13:15:51.515Z,9.60
2018-11-14T13:17:55.996Z,21.17
2018-11-14T13:20:01.201Z,12.43
2018-11-14T13:22:05.723Z,19.90
2018-11-14T13:24:13.888Z,19.00
2018-11-14T13:26:18.571Z,26.83
2018-11-14T13:28:22.978Z,16.37
2018-11-14T13:30:27.394Z,15.00
2018-11-14T13:32:32.184Z,12.30
2018-11-14T13:34:36.937Z,13.57
2018-11-14T13:36:41.246Z,13.40
2018-11-14T13:38:45.768Z,18.77
2018-11-14T13:40:49.798Z,16.87
2018-11-14T13:42:53.786Z,17.97
2018-11-14T13:44:58.019Z,24.30
2018-11-14T13:47:02.514Z,20.30
2018-11-14T13:49:06.866Z,17.43
2018-11-14T13:51:10.924Z,21.53
2018-11-14T13:53:15.448Z,30.73
2018-11-14T13:55:21.135Z,26.37
2018-11-14T13:57:25.421Z,27.67
2018-11-14T13:59:29.693Z,21.97
2018-11-14T14:01:34.032Z,21.10
2018-11-14T14:03:40.756Z,19.70
2018-11-14T14:05:45.096Z,21.60
2018-11-14T14:07:49.499Z,26.00
2018-11-14T14:09:53.940Z,29.47
2018-11-14T14:11:58.154Z,23.00
2018-11-14T14:14:07.838Z,20.53
2018-11-14T14:16:12.623Z,21.67
2018-11-14T14:18:16.869Z,21.20
2018-11-14T14:20:32.786Z,19.30
2018-11-14T14:22:37.120Z,24.50
2018-11-14T14:24:41.636Z,20.20
2018-11-14T14:26:47.521Z,21.73
2018-11-14T14:28:53.021Z,23.47
2018-11-14T14:30:57.469Z,23.77
2018-11-14T14:33:02.088Z,18.90
2018-11-14T14:35:07.585Z,24.10
2018-11-14T14:37:13.081Z,20.63
2018-11-14T14:39:18.899Z,22.37
2018-11-14T14:41:23.513Z,21.93
2018-11-14T14:43:27.881Z,19.47
2018-11-14T14:45:32.371Z,20.03
2018-11-14T14:47:36.911Z,20.20
2018-11-14T14:49:42.368Z,24.67
2018-11-14T14:51:47.020Z,22.37
2018-11-14T14:53:52.015Z,22.30
2018-11-14T14:55:56.425Z,18.07
2018-11-14T14:58:01.435Z,20.93
2018-11-14T15:00:10.284Z,16.80
2018-11-14T15:02:14.645Z,17.30
2018-11-14T15:04:19.071Z,19.87
2018-11-14T15:06:23.525Z,24.03
2018-11-14T15:08:28.898Z,22.10
2018-11-14T15:10:33.159Z,28.30
2018-11-14T15:12:37.516Z,23.90
2018-11-14T15:14:42.161Z,23.23
2018-11-14T15:16:46.709Z,17.27
2018-11-14T15:18:51.331Z,20.50
2018-11-14T15:20:55.872Z,26.50
2018-11-14T15:23:00.501Z,22.30
2018-11-14T15:25:05.327Z,20.70
2018-11-14T15:27:09.713Z,18.03
2018-11-14T15:29:15.891Z,20.13
2018-11-14T15:31:20.402Z,25.93
2018-11-14T15:33:24.984Z,22.37
2018-11-14T15:35:29.403Z,27.03
2018-11-14T15:37:33.877Z,20.20
2018-11-14T15:39:38.951Z,17.23
2018-11-14T15:41:43.153Z,19.40
2018-11-14T15:43:50.177Z,19.17
2018-11-14T15:45:54.747Z,20.17
2018-11-14T15:48:03.446Z,15.13
2018-11-14T15:50:19.482Z,17.50
2018-11-14T15:52:24.049Z,15.87
2018-11-14T15:54:28.496Z,16.17
2018-11-14T15:56:32.935Z,18.97
2018-11-14T15:58:37.387Z,15.83
2018-11-14T16:00:41.723Z,19.13
2018-11-14T16:02:46.348Z,19.03
2018-11-14T16:04:50.856Z,18.60
2018-11-14T16:06:55.772Z,14.50
2018-11-14T16:08:59.958Z,22.40
2018-11-14T16:11:04.465Z,17.23
2018-11-14T16:13:08.818Z,18.20
2018-11-14T16:15:15.509Z,20.17
2018-11-14T16:17:19.792Z,17.90
2018-11-14T16:19:24.239Z,19.30
2018-11-14T16:21:28.648Z,26.20
2018-11-14T16:23:33.028Z,29.50
2018-11-14T16:25:37.421Z,19.40
2018-11-14T16:27:42.668Z,19.60
2018-11-14T16:29:47.090Z,19.40
2018-11-14T16:31:51.614Z,19.33
2018-11-14T16:33:56.167Z,19.93
2018-11-14T16:36:00.994Z,17.50
2018-11-14T16:38:05.365Z,19.07
2018-11-14T16:40:13.217Z,20.93
2018-11-14T16:42:17.636Z,16.87
2018-11-14T16:44:22.278Z,21.70
2018-11-14T16:46:26.693Z,16.43
2018-11-14T16:48:31.878Z,37.43
2018-11-14T16:50:36.221Z,22.20
2018-11-14T16:52:40.526Z,16.73
2018-11-14T16:54:45.137Z,21.03
2018-11-14T16:56:49.599Z,17.87
2018-11-14T16:58:53.796Z,28.70
2018-11-14T17:00:58.174Z,20.40
2018-11-14T17:03:02.396Z,25.23
2018-11-14T17:05:06.914Z,26.23
2018-11-14T17:07:11.177Z,19.63
2018-11-14T17:09:15.558Z,25.70
2018-11-14T17:11:19.887Z,19.70
2018-11-14T17:13:24.300Z,18.93
2018-11-14T17:15:28.911Z,20.13
2018-11-14T17:17:33.207Z,19.97
2018-11-14T17:19:37.861Z,20.83
2018-11-14T17:21:42.257Z,25.93
2018-11-14T17:23:46.768Z,20.13
2018-11-14T17:25:51.191Z,21.07
2018-11-14T17:27:55.712Z,21.30
2018-11-14T17:30:00.534Z,24.73
2018-11-14T17:32:04.820Z,27.60
2018-11-14T17:34:09.184Z,22.33
2018-11-14T17:36:13.364Z,34.10
2018-11-14T17:38:17.695Z,22.87
2018-11-14T17:40:24.237Z,24.53
2018-11-14T17:42:28.890Z,29.50
2018-11-14T17:44:33.240Z,22.23
2018-11-14T17:46:37.616Z,23.70
2018-11-14T17:48:42.059Z,17.43
2018-11-14T17:50:46.486Z,21.23
2018-11-14T17:52:52.012Z,18.90
2018-11-14T17:54:56.882Z,24.03
2018-11-14T17:57:01.188Z,19.27
2018-11-14T17:59:06.385Z,22.80
2018-11-14T18:01:11.239Z,21.27
2018-11-14T18:03:15.590Z,32.13
2018-11-14T18:05:21.082Z,33.10
2018-11-14T18:07:25.386Z,30.37
2018-11-14T18:09:29.926Z,36.40
2018-11-14T18:11:34.612Z,39.20
2018-11-14T18:13:39.115Z,33.57
2018-11-14T18:15:43.471Z,32.37
2018-11-14T18:17:48.246Z,23.57
2018-11-14T18:19:52.715Z,26.83
2018-11-14T18:21:57.380Z,21.80
2018-11-14T18:24:01.846Z,26.83
2018-11-14T18:26:06.563Z,23.07
2018-11-14T18:28:11.032Z,18.50
2018-11-14T18:30:18.861Z,24.70
2018-11-14T18:32:23.510Z,20.87
2018-11-14T18:34:27.916Z,25.47
2018-11-14T18:36:32.511Z,18.17
2018-11-14T18:38:37.062Z,20.20
2018-11-14T18:40:41.650Z,15.90
2018-11-14T18:42:46.089Z,20.33
2018-11-14T18:44:50.523Z,16.70
2018-11-14T18:46:54.742Z,16.23
2018-11-14T18:48:59.124Z,22.30
2018-11-14T18:51:03.551Z,15.10
2018-11-14T18:53:07.972Z,13.70
2018-11-14T18:55:13.517Z,14.60
2018-11-14T18:57:19.076Z,11.90
2018-11-14T18:59:23.479Z,13.63
2018-11-14T19:01:27.909Z,17.17
2018-11-14T19:03:32.319Z,17.67
2018-11-14T19:05:36.619Z,9.77
2018-11-14T19:07:41.036Z,14.03
2018-11-14T19:09:45.752Z,8.93
2018-11-14T19:11:50.389Z,10.73
2018-11-14T19:13:54.695Z,15.57
2018-11-14T19:15:58.903Z,8.90
2018-11-14T19:18:03.461Z,11.77
2018-11-14T19:20:08.889Z,9.87
2018-11-14T19:22:13.294Z,12.60
2018-11-14T19:24:17.913Z,10.63
2018-11-14T19:26:22.217Z,13.30
2018-11-14T19:28:26.665Z,12.73
2018-11-14T19:30:33.442Z,11.50
2018-11-14T19:32:37.647Z,9.80
2018-11-14T19:34:42.256Z,18.47
2018-11-14T19:36:46.556Z,9.80
2018-11-14T19:38:50.981Z,15.50
2018-11-14T19:40:55.507Z,15.27
2018-11-14T19:43:01.435Z,12.87
2018-11-14T19:45:07.991Z,13.00
2018-11-14T19:47:12.651Z,9.80
2018-11-14T19:49:17.110Z,10.87
2018-11-14T19:51:21.392Z,10.00
2018-11-14T19:53:25.906Z,11.77
2018-11-14T19:55:30.564Z,13.93
2018-11-14T19:57:35.121Z,15.70
2018-11-14T19:59:42.975Z,12.47
2018-11-14T20:01:47.434Z,9.90
2018-11-14T20:03:52.006Z,9.17
2018-11-14T20:05:56.602Z,12.60
2018-11-14T20:08:01.007Z,10.10
2018-11-14T20:10:06.423Z,12.40
2018-11-14T20:12:10.681Z,13.27
2018-11-14T20:14:15.002Z,15.90
2018-11-14T20:16:19.673Z,14.63
2018-11-14T20:18:23.890Z,11.80
2018-11-14T20:20:31.679Z,12.30
2018-11-14T20:22:36.104Z,12.30
2018-11-14T20:24:40.413Z,14.13
2018-11-14T20:26:44.964Z,12.87
2018-11-14T20:28:49.297Z,18.80
2018-11-14T20:30:53.556Z,19.50
2018-11-14T20:32:59.216Z,15.77
2018-11-14T20:35:03.528Z,18.70
2018-11-14T20:37:08.030Z,13.47
2018-11-14T20:39:13.475Z,19.30
2018-11-14T20:41:18.013Z,14.80
2018-11-14T20:43:22.434Z,17.23
2018-11-14T20:45:28.208Z,14.70
2018-11-14T20:47:32.624Z,12.37
2018-11-14T20:49:37.154Z,13.97
2018-11-14T20:51:41.412Z,18.87
2018-11-14T20:53:45.768Z,21.03
2018-11-14T20:55:51.418Z,21.27
2018-11-14T20:57:55.672Z,13.93
2018-11-14T21:00:00.160Z,24.70
2018-11-14T21:02:04.421Z,15.33
2018-11-14T21:04:08.798Z,16.43
2018-11-14T21:06:13.090Z,20.73
2018-11-14T21:08:17.549Z,13.40
2018-11-14T21:10:23.560Z,18.80
2018-11-14T21:12:28.099Z,13.73
2018-11-14T21:14:32.506Z,18.60
2018-11-14T21:16:36.915Z,18.33
2018-11-14T21:18:41.546Z,13.77
2018-11-14T21:20:45.901Z,16.60
2018-11-14T21:22:50.283Z,17.03
2018-11-14T21:24:54.961Z,16.13
2018-11-14T21:26:59.329Z,22.43
2018-11-14T21:29:03.740Z,14.47
2018-11-14T21:31:08.041Z,21.40
2018-11-14T21:33:12.465Z,18.60
2018-11-14T21:35:20.886Z,16.13
2018-11-14T21:37:25.194Z,15.23
2018-11-14T21:39:29.523Z,19.20
2018-11-14T21:41:33.935Z,17.70
2018-11-14T21:43:38.260Z,17.53
2018-11-14T21:45:42.771Z,22.40
2018-11-14T21:47:52.502Z,19.97
2018-11-14T21:49:56.698Z,17.03
2018-11-14T21:52:01.132Z,15.50
2018-11-14T21:54:05.527Z,18.80
2018-11-14T21:56:09.901Z,21.33
2018-11-14T21:58:14.261Z,19.07
2018-11-14T22:00:22.796Z,18.13
2018-11-14T22:02:27.195Z,20.27
2018-11-14T22:04:31.484Z,18.80
2018-11-14T22:06:35.931Z,24.20
2018-11-14T22:08:40.202Z,20.53
2018-11-14T22:10:44.571Z,23.43
2018-11-14T22:12:49.221Z,21.57
2018-11-14T22:14:53.637Z,22.80
2018-11-14T22:16:57.897Z,21.80
2018-11-14T22:19:02.838Z,27.00
2018-11-14T22:21:07.234Z,26.37
2018-11-14T22:23:11.679Z,23.30
2018-11-14T22:25:17.246Z,29.20
2018-11-14T22:27:21.643Z,23.57
2018-11-14T22:29:26.013Z,28.57
2018-11-14T22:31:30.413Z,24.40
2018-11-14T22:33:34.681Z,22.67
2018-11-14T22:35:39.082Z,27.33
2018-11-14T22:37:43.313Z,22.40
2018-11-14T22:39:47.721Z,23.83
2018-11-14T22:41:52.140Z,26.60
2018-11-14T22:43:56.441Z,26.23
2018-11-14T22:46:00.604Z,24.43
2018-11-14T22:48:04.799Z,22.70
2018-11-14T22:50:10.315Z,23.30
2018-11-14T22:52:14.647Z,22.70
2018-11-14T22:54:19.053Z,33.93
2018-11-14T22:56:23.357Z,25.93
2018-11-14T22:58:27.626Z,26.03
2018-11-14T23:00:37.997Z,24.27
2018-11-14T23:02:42.581Z,28.17
2018-11-14T23:04:46.879Z,24.77
2018-11-14T23:06:51.066Z,26.17
2018-11-14T23:08:55.606Z,25.37
2018-11-14T23:11:00.029Z,28.93
2018-11-14T23:13:04.419Z,24.90
2018-11-14T23:15:09.252Z,26.10
2018-11-14T23:17:13.756Z,28.17
2018-11-14T23:19:18.247Z,30.40
2018-11-14T23:21:22.520Z,36.27
2018-11-14T23:23:26.725Z,30.77
2018-11-14T23:25:31.426Z,29.60
2018-11-14T23:27:35.844Z,35.97
2018-11-14T23:29:40.203Z,30.83
2018-11-14T23:31:44.609Z,27.33
2018-11-14T23:33:48.881Z,33.13
2018-11-14T23:35:53.459Z,35.60
2018-11-14T23:38:01.905Z,37.60
2018-11-14T23:40:07.488Z,30.50
2018-11-14T23:42:11.690Z,31.33
2018-11-14T23:44:15.920Z,32.30
2018-11-14T23:46:20.243Z,36.87
2018-11-14T23:48:24.518Z,30.80
2018-11-14T23:50:29.948Z,36.13
2018-11-14T23:52:34.197Z,35.33
2018-11-14T23:54:38.486Z,33.57
2018-11-14T23:56:42.848Z,37.13
2018-11-14T23:58:47.209Z,33.37
